createdAt,value
2019-05-02T00:00:19.101Z,30.07
2019-05-02T00:02:48.206Z,30.27
2019-05-02T00:05:17.966Z,29.70
2019-05-02T00:07:47.262Z,30.47
2019-05-02T00:10:19.971Z,29.20
2019-05-02T00:12:50.602Z,33.07
2019-05-02T00:15:19.876Z,30.17
2019-05-02T00:17:48.825Z,31.57
2019-05-02T00:20:21.115Z,29.60
2019-05-02T00:22:52.194Z,28.70
2019-05-02T00:25:19.378Z,30.90
2019-05-02T00:27:48.389Z,30.23
2019-05-02T00:30:18.121Z,30.93
2019-05-02T00:32:47.070Z,32.20
2019-05-02T00:35:16.001Z,32.27
2019-05-02T00:37:45.204Z,30.07
2019-05-02T00:40:14.475Z,31.80
2019-05-02T00:42:43.435Z,30.33
2019-05-02T00:45:14.149Z,31.07
2019-05-02T00:47:51.157Z,28.90
2019-05-02T00:50:20.894Z,30.40
2019-05-02T00:52:49.841Z,29.53
2019-05-02T00:55:18.876Z,30.33
2019-05-02T00:57:51.001Z,29.33
2019-05-02T01:00:19.863Z,30.20
2019-05-02T01:02:50.501Z,31.33
2019-05-02T01:05:19.496Z,30.57
2019-05-02T01:07:48.509Z,28.83
2019-05-02T01:10:21.325Z,27.27
2019-05-02T01:12:48.558Z,26.40
2019-05-02T01:15:17.557Z,31.90
2019-05-02T01:17:46.507Z,29.83
2019-05-02T01:20:15.623Z,29.40
2019-05-02T01:22:47.261Z,29.80
2019-05-02T01:25:17.253Z,29.00
2019-05-02T01:27:57.142Z,28.20
2019-05-02T01:30:27.730Z,27.87
2019-05-02T01:33:05.941Z,30.87
2019-05-02T01:35:39.426Z,28.87
2019-05-02T01:38:18.594Z,28.70
2019-05-02T01:40:53.278Z,29.23
2019-05-02T01:43:24.044Z,29.20
2019-05-02T01:45:52.782Z,30.43
2019-05-02T01:48:22.054Z,29.60
2019-05-02T01:50:53.508Z,27.97
2019-05-02T01:53:22.713Z,29.13
2019-05-02T01:55:56.609Z,29.77
2019-05-02T01:58:22.924Z,27.47
2019-05-02T02:00:52.077Z,29.60
2019-05-02T02:03:21.157Z,30.13
2019-05-02T02:05:50.179Z,28.30
2019-05-02T02:08:19.097Z,28.97
2019-05-02T02:10:50.798Z,29.17
2019-05-02T02:13:18.854Z,29.00
2019-05-02T02:15:48.295Z,28.23
2019-05-02T02:18:22.122Z,27.83
2019-05-02T02:20:56.282Z,28.90
2019-05-02T02:23:45.020Z,29.50
2019-05-02T02:26:14.233Z,28.47
2019-05-02T02:28:43.508Z,30.37
2019-05-02T02:31:12.535Z,31.50
2019-05-02T02:33:48.137Z,30.40
2019-05-02T02:36:12.206Z,28.97
2019-05-02T02:38:41.187Z,30.67
2019-05-02T02:41:13.141Z,29.97
2019-05-02T02:43:41.758Z,30.43
2019-05-02T02:46:24.497Z,28.13
2019-05-02T02:48:53.546Z,28.17
2019-05-02T02:51:24.498Z,29.27
2019-05-02T02:54:02.634Z,30.33
2019-05-02T02:56:23.931Z,29.47
2019-05-02T02:58:52.854Z,31.10
2019-05-02T03:01:28.531Z,28.27
2019-05-02T03:03:52.771Z,29.40
2019-05-02T03:06:21.713Z,29.37
2019-05-02T03:08:50.758Z,29.07
2019-05-02T03:11:23.502Z,28.00
2019-05-02T03:14:00.080Z,27.87
2019-05-02T03:16:26.226Z,29.17
2019-05-02T03:18:55.326Z,28.17
2019-05-02T03:21:24.367Z,29.00
2019-05-02T03:24:02.254Z,27.77
2019-05-02T03:26:24.154Z,27.63
2019-05-02T03:28:58.671Z,27.47
2019-05-02T03:31:29.878Z,26.73
2019-05-02T03:34:00.270Z,27.80
2019-05-02T03:36:30.153Z,26.60
2019-05-02T03:38:56.353Z,26.23
2019-05-02T03:41:25.764Z,25.70
2019-05-02T03:44:09.834Z,27.43
2019-05-02T03:46:25.491Z,25.57
2019-05-02T03:49:05.525Z,26.67
2019-05-02T03:51:25.550Z,26.10
2019-05-02T03:54:06.097Z,25.97
2019-05-02T03:56:25.551Z,26.13
2019-05-02T03:58:56.324Z,33.10
2019-05-02T04:01:25.836Z,30.50
2019-05-02T04:03:54.799Z,31.10
2019-05-02T04:06:23.968Z,31.13
2019-05-02T04:09:00.117Z,31.77
2019-05-02T04:11:25.286Z,38.63
2019-05-02T04:13:55.167Z,27.67
2019-05-02T04:16:24.448Z,29.60
2019-05-02T04:18:57.734Z,37.03
2019-05-02T04:21:26.493Z,30.07
2019-05-02T04:24:07.602Z,30.63
2019-05-02T04:26:28.633Z,29.93
2019-05-02T04:28:58.142Z,32.77
2019-05-02T04:31:31.730Z,27.10
2019-05-02T04:33:57.709Z,24.97
2019-05-02T04:36:26.763Z,24.87
2019-05-02T04:38:55.745Z,27.23
2019-05-02T04:41:28.971Z,25.80
2019-05-02T04:43:57.921Z,25.77
2019-05-02T04:46:30.945Z,26.37
2019-05-02T04:48:58.900Z,25.80
2019-05-02T04:51:31.568Z,26.03
2019-05-02T04:53:58.944Z,28.57
2019-05-02T04:56:28.470Z,26.03
2019-05-02T04:59:01.409Z,25.73
2019-05-02T05:01:33.018Z,25.50
2019-05-02T05:04:03.207Z,25.23
2019-05-02T05:06:29.519Z,25.17
2019-05-02T05:08:58.618Z,25.07
2019-05-02T05:11:27.777Z,24.07
2019-05-02T05:14:00.171Z,24.70
2019-05-02T05:16:28.630Z,24.13
2019-05-02T05:18:57.826Z,25.53
2019-05-02T05:21:28.661Z,26.40
2019-05-02T05:24:01.412Z,24.03
2019-05-02T05:26:33.909Z,23.13
2019-05-02T05:29:02.477Z,24.10
2019-05-02T05:31:31.426Z,22.90
2019-05-02T05:34:00.365Z,22.93
2019-05-02T05:36:33.773Z,22.63
2019-05-02T05:39:03.075Z,23.43
2019-05-02T05:41:30.713Z,22.50
2019-05-02T05:43:59.644Z,22.67
2019-05-02T05:46:28.590Z,22.87
2019-05-02T05:48:58.321Z,23.07
2019-05-02T05:51:27.815Z,21.83
2019-05-02T05:54:02.802Z,24.27
2019-05-02T05:56:28.068Z,24.33
2019-05-02T05:58:59.267Z,22.37
2019-05-02T06:01:34.457Z,24.60
2019-05-02T06:03:58.610Z,26.53
2019-05-02T06:06:27.646Z,23.90
2019-05-02T06:08:56.641Z,26.20
2019-05-02T06:11:25.654Z,25.63
2019-05-02T06:13:54.694Z,24.93
2019-05-02T06:16:23.646Z,25.23
2019-05-02T06:18:52.601Z,25.83
2019-05-02T06:21:21.571Z,26.60
2019-05-02T06:23:50.542Z,27.17
2019-05-02T06:26:19.467Z,28.03
2019-05-02T06:28:48.452Z,26.27
2019-05-02T06:31:17.490Z,28.10
2019-05-02T06:33:46.454Z,28.80
2019-05-02T06:36:15.464Z,28.97
2019-05-02T06:38:44.405Z,28.37
2019-05-02T06:41:16.160Z,28.97
2019-05-02T06:43:46.693Z,27.20
2019-05-02T06:46:16.356Z,27.20
2019-05-02T06:48:48.224Z,25.63
2019-05-02T06:51:19.665Z,26.27
2019-05-02T06:53:48.793Z,23.63
2019-05-02T06:56:17.467Z,23.87
2019-05-02T06:58:46.422Z,23.23
2019-05-02T07:01:16.214Z,23.70
2019-05-02T07:03:47.474Z,24.73
2019-05-02T07:06:16.778Z,24.00
2019-05-02T07:08:45.923Z,25.57
2019-05-02T07:11:14.966Z,24.97
2019-05-02T07:13:43.942Z,24.80
2019-05-02T07:16:16.220Z,22.77
2019-05-02T07:18:49.774Z,23.93
2019-05-02T07:21:23.148Z,23.13
2019-05-02T07:23:53.507Z,23.73
2019-05-02T07:26:21.047Z,23.77
2019-05-02T07:28:50.909Z,23.67
2019-05-02T07:31:19.837Z,24.27
2019-05-02T07:33:48.774Z,24.03
2019-05-02T07:36:17.723Z,27.80
2019-05-02T07:38:46.650Z,27.53
2019-05-02T07:41:15.614Z,28.20
2019-05-02T07:43:44.538Z,28.03
2019-05-02T07:46:16.193Z,28.40
2019-05-02T07:48:48.729Z,28.60
2019-05-02T07:51:17.271Z,31.83
2019-05-02T07:53:48.562Z,29.50
2019-05-02T07:56:17.610Z,30.27
2019-05-02T07:58:48.083Z,28.97
2019-05-02T08:01:17.133Z,32.90
2019-05-02T08:03:46.056Z,33.30
2019-05-02T08:06:15.073Z,33.23
2019-05-02T08:08:43.997Z,30.93
2019-05-02T08:11:13.184Z,30.97
2019-05-02T08:13:42.129Z,30.57
2019-05-02T08:16:11.077Z,29.83
2019-05-02T08:18:40.013Z,32.40
2019-05-02T08:21:09.038Z,31.30
2019-05-02T08:23:37.975Z,30.80
2019-05-02T08:26:06.920Z,32.10
2019-05-02T08:28:51.844Z,31.30
2019-05-02T08:31:20.984Z,33.70
2019-05-02T08:33:50.095Z,32.13
2019-05-02T08:36:19.043Z,33.63
2019-05-02T08:38:48.936Z,32.00
2019-05-02T08:41:19.939Z,32.30
2019-05-02T08:43:49.255Z,32.77
2019-05-02T08:46:18.223Z,34.40
2019-05-02T08:48:47.172Z,31.87
2019-05-02T08:51:16.139Z,33.10
2019-05-02T08:53:45.064Z,34.40
2019-05-02T08:56:16.488Z,35.73
2019-05-02T08:58:44.972Z,32.47
2019-05-02T09:01:15.506Z,31.60
2019-05-02T09:04:00.006Z,29.70
2019-05-02T09:06:17.323Z,31.00
2019-05-02T09:08:46.180Z,28.00
2019-05-02T09:11:16.562Z,31.70
2019-05-02T09:13:46.078Z,31.57
2019-05-02T09:16:15.254Z,32.70
2019-05-02T09:18:50.759Z,33.77
2019-05-02T09:21:14.926Z,28.73
2019-05-02T09:23:44.089Z,28.87
2019-05-02T09:26:13.173Z,31.63
2019-05-02T09:28:42.333Z,32.20
2019-05-02T09:31:12.983Z,29.47
2019-05-02T09:33:46.665Z,31.97
2019-05-02T09:36:12.581Z,30.53
2019-05-02T09:38:42.465Z,32.17
2019-05-02T09:41:17.051Z,27.80
2019-05-02T09:43:42.681Z,27.97
2019-05-02T09:46:16.357Z,28.87
2019-05-02T09:48:42.866Z,28.77
2019-05-02T09:51:17.185Z,30.03
2019-05-02T09:53:43.174Z,27.70
2019-05-02T09:56:12.833Z,26.93
2019-05-02T09:58:43.428Z,28.47
2019-05-02T10:01:26.282Z,31.23
2019-05-02T10:03:55.322Z,29.33
2019-05-02T10:06:24.271Z,31.60
2019-05-02T10:08:53.303Z,32.93
2019-05-02T10:11:26.051Z,32.17
2019-05-02T10:13:55.405Z,34.10
2019-05-02T10:16:27.271Z,34.07
2019-05-02T10:18:54.593Z,30.40
2019-05-02T10:21:23.598Z,37.73
2019-05-02T10:23:59.157Z,34.27
2019-05-02T10:26:24.417Z,34.60
2019-05-02T10:28:53.834Z,36.93
2019-05-02T10:31:22.854Z,33.70
2019-05-02T10:33:52.929Z,36.93
2019-05-02T10:36:24.033Z,35.27
2019-05-02T10:38:54.672Z,34.80
2019-05-02T10:41:23.600Z,36.03
2019-05-02T10:43:56.631Z,36.77
2019-05-02T10:46:32.024Z,35.50
2019-05-02T10:49:01.868Z,34.23
2019-05-02T10:51:34.516Z,36.77
2019-05-02T10:54:05.281Z,37.17
2019-05-02T10:56:34.410Z,37.67
2019-05-02T10:59:03.581Z,41.93
2019-05-02T11:01:34.178Z,36.57
2019-05-02T11:04:12.468Z,39.70
2019-05-02T11:06:42.558Z,44.13
2019-05-02T11:09:12.119Z,45.00
2019-05-02T11:11:42.521Z,40.37
2019-05-02T11:14:13.265Z,42.07
2019-05-02T11:16:46.362Z,42.43
2019-05-02T11:19:16.940Z,41.60
2019-05-02T11:21:55.799Z,39.37
2019-05-02T11:24:16.556Z,41.63
2019-05-02T11:26:45.506Z,42.57
2019-05-02T11:29:14.510Z,47.63
2019-05-02T11:31:43.605Z,43.03
2019-05-02T11:34:12.616Z,46.67
2019-05-02T11:36:42.147Z,45.67
2019-05-02T11:39:20.687Z,44.63
2019-05-02T11:41:42.469Z,47.77
2019-05-02T11:44:12.149Z,47.63
2019-05-02T11:46:45.006Z,44.53
2019-05-02T11:49:12.358Z,48.43
2019-05-02T11:51:42.122Z,49.70
2019-05-02T11:54:13.008Z,47.50
2019-05-02T11:56:49.103Z,46.10
2019-05-02T11:59:14.744Z,51.77
2019-05-02T12:01:56.914Z,47.23
2019-05-02T12:04:16.986Z,55.87
2019-05-02T12:06:50.038Z,50.37
2019-05-02T12:09:17.334Z,50.33
2019-05-02T12:11:47.375Z,56.07
2019-05-02T12:14:17.014Z,54.73
2019-05-02T12:16:46.115Z,53.00
2019-05-02T12:19:15.086Z,52.77
2019-05-02T12:21:53.259Z,53.33
2019-05-02T12:24:22.333Z,54.60
2019-05-02T12:26:52.811Z,52.90
2019-05-02T12:29:22.018Z,52.60
2019-05-02T12:31:56.175Z,49.43
2019-05-02T12:34:22.690Z,48.63
2019-05-02T12:36:52.327Z,51.73
2019-05-02T12:39:22.129Z,50.60
2019-05-02T12:41:53.602Z,48.83
2019-05-02T12:44:23.397Z,52.13
2019-05-02T12:46:52.326Z,49.80
2019-05-02T12:49:25.360Z,48.50
2019-05-02T12:51:52.427Z,50.87
2019-05-02T12:54:22.071Z,47.67
2019-05-02T12:56:52.811Z,48.70
2019-05-02T12:59:22.546Z,40.13
2019-05-02T13:01:51.877Z,48.63
2019-05-02T13:04:22.790Z,48.77
2019-05-02T13:06:53.081Z,40.73
2019-05-02T13:09:23.412Z,44.93
2019-05-02T13:11:59.667Z,43.77
2019-05-02T13:14:31.728Z,37.17
2019-05-02T13:17:03.784Z,42.90
2019-05-02T13:19:39.962Z,35.87
2019-05-02T13:22:03.806Z,40.23
2019-05-02T13:24:34.474Z,38.47
2019-05-02T13:27:04.463Z,40.00
2019-05-02T13:29:33.838Z,36.93
2019-05-02T13:32:08.686Z,34.30
2019-05-02T13:37:31.795Z,36.57
2019-05-02T13:40:12.128Z,33.23
2019-05-02T13:42:41.850Z,37.63
2019-05-02T13:45:12.882Z,36.03
2019-05-02T13:47:42.628Z,35.80
2019-05-02T13:50:12.955Z,33.67
2019-05-02T13:52:44.992Z,36.27
2019-05-02T13:55:14.788Z,38.63
2019-05-02T13:57:46.866Z,37.97
2019-05-02T14:00:17.146Z,35.43
2019-05-02T14:02:46.334Z,36.27
2019-05-02T14:05:16.131Z,35.33
2019-05-02T14:08:03.154Z,37.60
2019-05-02T14:10:39.251Z,34.97
2019-05-02T14:13:04.497Z,35.80
2019-05-02T14:15:38.180Z,34.87
2019-05-02T14:18:07.538Z,35.33
2019-05-02T14:20:37.526Z,38.13
2019-05-02T14:23:06.821Z,37.63
2019-05-02T14:25:35.879Z,36.17
2019-05-02T14:28:04.982Z,37.40
2019-05-02T14:30:39.491Z,37.13
2019-05-02T14:33:06.593Z,35.17
2019-05-02T14:35:39.467Z,35.63
2019-05-02T14:38:10.230Z,30.03
2019-05-02T14:40:43.258Z,32.27
2019-05-02T14:43:13.991Z,34.60
2019-05-02T14:45:43.914Z,30.23
2019-05-02T14:48:21.100Z,33.27
2019-05-02T14:50:46.969Z,34.27
2019-05-02T14:53:16.802Z,34.20
2019-05-02T14:55:48.222Z,34.47
2019-05-02T14:58:17.205Z,34.60
2019-05-02T15:00:48.135Z,35.60
2019-05-02T15:03:19.053Z,35.03
2019-05-02T15:05:48.051Z,36.40
2019-05-02T15:08:17.053Z,37.73
2019-05-02T15:10:52.412Z,35.37
2019-05-02T15:13:16.822Z,35.23
2019-05-02T15:15:45.766Z,32.93
2019-05-02T15:18:17.450Z,33.50
2019-05-02T15:20:45.371Z,33.40
2019-05-02T15:23:19.584Z,34.17
2019-05-02T15:25:51.414Z,36.80
2019-05-02T15:28:22.844Z,30.23
2019-05-02T15:31:09.201Z,29.57
2019-05-02T15:33:39.794Z,30.87
2019-05-02T15:36:13.329Z,27.87
2019-05-02T15:38:47.347Z,28.43
2019-05-02T15:41:15.281Z,29.03
2019-05-02T15:43:44.487Z,30.87
2019-05-02T15:46:15.791Z,28.83
2019-05-02T15:48:45.013Z,30.13
2019-05-02T15:51:13.948Z,38.40
2019-05-02T15:53:48.457Z,34.27
2019-05-02T15:56:19.729Z,29.80
2019-05-02T15:58:46.032Z,31.37
2019-05-02T16:01:36.599Z,30.70
2019-05-02T16:04:05.883Z,29.67
2019-05-02T16:06:34.823Z,32.33
2019-05-02T16:09:05.375Z,33.10
2019-05-02T16:11:34.318Z,35.50
2019-05-02T16:14:03.437Z,34.37
2019-05-02T16:16:36.722Z,34.90
2019-05-02T16:19:03.180Z,33.27
2019-05-02T16:21:39.855Z,36.27
2019-05-02T16:24:25.490Z,35.97
2019-05-02T16:26:56.965Z,37.03
2019-05-02T16:29:28.296Z,40.23
2019-05-02T16:32:03.147Z,37.87
2019-05-02T16:34:32.423Z,38.93
2019-05-02T16:37:16.510Z,37.17
2019-05-02T16:39:49.438Z,38.00
2019-05-02T16:42:13.273Z,39.13
2019-05-02T16:44:42.981Z,37.97
2019-05-02T16:47:13.868Z,40.23
2019-05-02T16:49:43.310Z,39.33
2019-05-02T16:52:12.765Z,41.50
2019-05-02T16:54:43.822Z,43.07
2019-05-02T16:57:32.742Z,41.47
2019-05-02T17:00:06.128Z,35.23
2019-05-02T17:02:37.848Z,33.47
2019-05-02T17:05:09.394Z,38.70
2019-05-02T17:07:45.608Z,35.27
2019-05-02T17:10:17.771Z,36.90
2019-05-02T17:12:51.822Z,34.90
2019-05-02T17:15:35.365Z,35.83
2019-05-02T17:18:13.304Z,36.93
2019-05-02T17:20:37.274Z,35.13
2019-05-02T17:23:07.426Z,36.40
2019-05-02T17:25:36.920Z,35.90
2019-05-02T17:28:10.007Z,37.57
2019-05-02T17:30:38.953Z,35.17
2019-05-02T17:33:11.995Z,36.63
2019-05-02T17:35:41.655Z,47.47
2019-05-02T17:38:08.910Z,37.23
2019-05-02T17:40:37.932Z,36.83
2019-05-02T17:43:07.174Z,44.33
2019-05-02T17:45:38.605Z,36.47
2019-05-02T17:48:14.923Z,35.37
2019-05-02T17:50:49.402Z,36.03
2019-05-02T17:53:16.706Z,36.23
2019-05-02T17:55:45.814Z,35.80
2019-05-02T17:58:16.651Z,36.17
2019-05-02T18:00:52.287Z,38.03
2019-05-02T18:03:24.222Z,35.20
2019-05-02T18:05:52.899Z,34.93
2019-05-02T18:08:22.024Z,36.73
2019-05-02T18:10:58.079Z,33.83
2019-05-02T18:13:22.802Z,35.97
2019-05-02T18:15:53.437Z,35.13
2019-05-02T18:18:22.741Z,37.33
2019-05-02T18:20:52.860Z,38.23
2019-05-02T18:23:25.750Z,36.50
2019-05-02T18:25:57.257Z,37.00
2019-05-02T18:28:26.354Z,36.67
2019-05-02T18:30:57.222Z,37.57
2019-05-02T18:33:24.886Z,38.07
2019-05-02T18:35:53.859Z,40.70
2019-05-02T18:38:23.170Z,38.77
2019-05-02T18:40:55.126Z,41.37
2019-05-02T18:43:22.894Z,40.93
2019-05-02T18:45:51.960Z,39.93
2019-05-02T18:48:21.915Z,40.73
2019-05-02T18:50:52.640Z,39.63
2019-05-02T18:53:24.252Z,42.00
2019-05-02T18:55:56.815Z,40.47
2019-05-02T18:58:23.342Z,41.07
2019-05-02T19:00:52.426Z,41.27
2019-05-02T19:03:22.994Z,41.73
2019-05-02T19:05:57.277Z,40.10
2019-05-02T19:08:31.189Z,40.80
2019-05-02T19:11:04.692Z,38.37
2019-05-02T19:13:24.759Z,37.73
2019-05-02T19:15:53.887Z,37.60
2019-05-02T19:18:22.839Z,34.53
2019-05-02T19:20:57.529Z,35.90
2019-05-02T19:23:25.612Z,36.10
2019-05-02T19:25:55.206Z,35.30
2019-05-02T19:28:38.395Z,35.27
2019-05-02T19:31:07.004Z,35.73
2019-05-02T19:33:37.505Z,35.80
2019-05-02T19:36:07.432Z,34.33
2019-05-02T19:38:36.450Z,34.50
2019-05-02T19:41:08.988Z,34.40
2019-05-02T19:43:40.310Z,34.03
2019-05-02T19:46:06.932Z,34.60
2019-05-02T19:48:37.986Z,33.03
2019-05-02T19:51:10.631Z,33.97
2019-05-02T19:53:37.671Z,37.50
2019-05-02T19:56:06.881Z,37.27
2019-05-02T19:58:36.774Z,35.77
2019-05-02T20:01:06.724Z,33.93
2019-05-02T20:03:36.022Z,32.83
2019-05-02T20:06:06.251Z,34.10
2019-05-02T20:08:35.440Z,34.47
2019-05-02T20:11:04.691Z,33.97
2019-05-02T20:13:33.791Z,33.73
2019-05-02T20:16:08.742Z,34.73
2019-05-02T20:18:43.851Z,33.63
2019-05-02T20:21:23.213Z,34.33
2019-05-02T20:23:43.595Z,34.80
2019-05-02T20:26:15.233Z,33.47
2019-05-02T20:28:43.366Z,33.33
2019-05-02T20:31:12.505Z,33.13
2019-05-02T20:33:43.008Z,32.73
2019-05-02T20:36:12.500Z,36.47
2019-05-02T20:38:41.899Z,34.27
2019-05-02T20:41:12.751Z,33.33
2019-05-02T20:43:44.406Z,33.00
2019-05-02T20:46:12.766Z,34.03
2019-05-02T20:48:41.959Z,33.67
2019-05-02T20:51:12.232Z,32.07
2019-05-02T20:53:42.117Z,31.93
2019-05-02T20:56:12.339Z,31.43
2019-05-02T20:58:42.078Z,32.20
2019-05-02T21:01:12.426Z,29.37
2019-05-02T21:03:42.775Z,28.63
2019-05-02T21:06:36.502Z,26.93
2019-05-02T21:09:02.219Z,26.97
2019-05-02T21:11:32.412Z,26.63
2019-05-02T21:14:01.786Z,27.40
2019-05-02T21:16:32.255Z,23.27
2019-05-02T21:19:02.220Z,23.33
2019-05-02T21:21:32.863Z,24.70
2019-05-02T21:24:02.137Z,21.53
2019-05-02T21:26:32.885Z,21.03
2019-05-02T21:29:02.020Z,22.50
2019-05-02T21:31:31.924Z,17.40
2019-05-02T21:34:02.605Z,16.23
2019-05-02T21:36:32.006Z,21.77
2019-05-02T21:39:02.745Z,16.30
2019-05-02T21:41:33.009Z,11.83
2019-05-02T21:44:02.549Z,12.80
2019-05-02T21:46:31.884Z,13.37
2019-05-02T21:49:01.003Z,10.47
2019-05-02T21:51:43.753Z,7.23
2019-05-02T21:54:14.390Z,6.70
2019-05-02T21:56:48.129Z,7.27
2019-05-02T21:59:17.063Z,7.33
2019-05-02T22:01:51.988Z,7.10
2019-05-02T22:04:22.528Z,7.00
2019-05-02T22:06:52.345Z,6.57
2019-05-02T22:09:23.175Z,5.97
2019-05-02T22:11:52.498Z,6.13
2019-05-02T22:14:22.352Z,6.07
2019-05-02T22:16:53.021Z,6.87
2019-05-02T22:19:22.224Z,6.63
2019-05-02T22:21:52.442Z,7.37
2019-05-02T22:24:21.807Z,6.80
2019-05-02T22:26:52.574Z,5.07
2019-05-02T22:29:21.989Z,5.53
2019-05-02T22:31:54.254Z,4.50
2019-05-02T22:34:22.014Z,5.23
2019-05-02T22:36:53.840Z,4.93
2019-05-02T22:39:38.856Z,5.47
2019-05-02T22:42:08.044Z,5.47
2019-05-02T22:44:36.969Z,5.13
2019-05-02T22:47:05.921Z,4.43
2019-05-02T22:49:34.831Z,7.07
2019-05-02T22:52:04.012Z,5.20
2019-05-02T22:54:33.909Z,4.40
2019-05-02T22:57:03.122Z,4.07
2019-05-02T22:59:32.121Z,5.37
2019-05-02T23:02:02.185Z,4.53
2019-05-02T23:04:32.491Z,4.37
2019-05-02T23:07:02.436Z,4.70
2019-05-02T23:09:31.551Z,4.87
2019-05-02T23:12:02.600Z,6.87
2019-05-02T23:14:32.507Z,4.83
2019-05-02T23:17:02.220Z,4.37
2019-05-02T23:19:31.690Z,6.30
2019-05-02T23:22:02.068Z,5.80
2019-05-02T23:24:39.390Z,4.93
2019-05-02T23:27:16.018Z,5.27
2019-05-02T23:29:44.954Z,5.40
2019-05-02T23:32:13.876Z,5.23
2019-05-02T23:34:42.803Z,5.37
2019-05-02T23:37:11.993Z,5.17
2019-05-02T23:39:41.787Z,5.00
2019-05-02T23:42:10.922Z,5.30
2019-05-02T23:44:39.897Z,7.40
2019-05-02T23:47:08.804Z,4.83
2019-05-02T23:49:37.815Z,4.70
2019-05-02T23:52:06.731Z,5.77
2019-05-02T23:54:35.670Z,5.57
2019-05-02T23:57:04.756Z,5.40
2019-05-02T23:59:33.782Z,4.93
